sensor_id;sensor_type;location;lat;lon;timestamp;pressure;altitude;pressure_sealevel;temperature;humidity
69318;BME280;56457;52.190;4.440;2023-04-28T00:00:36;101470.53;;;9.73;100.00
69318;BME280;56457;52.190;4.440;2023-04-28T00:01:37;101473.16;;;9.71;100.00
69318;BME280;56457;52.190;4.440;2023-04-28T00:02:37;101474.03;;;9.72;100.00
69318;BME280;56457;52.190;4.440;2023-04-28T00:03:38;101473.13;;;9.67;100.00
69318;BME280;56457;52.190;4.440;2023-04-28T00:04:38;101468.72;;;9.61;100.00
69318;BME280;56457;52.190;4.440;2023-04-28T00:05:38;101460.81;;;9.55;100.00
69318;BME280;56457;52.190;4.440;2023-04-28T00:06:39;101456.44;;;9.54;100.00
69318;BME280;56457;52.190;4.440;2023-04-28T00:07:40;101456.50;;;9.59;100.00
69318;BME280;56457;52.190;4.440;2023-04-28T00:08:40;101450.38;;;9.58;100.00
69318;BME280;56457;52.190;4.440;2023-04-28T00:09:40;101444.22;;;9.56;100.00
69318;BME280;56457;52.190;4.440;2023-04-28T00:10:41;101446.00;;;9.57;100.00
69318;BME280;56457;52.190;4.440;2023-04-28T00:11:43;101444.22;;;9.55;100.00
69318;BME280;56457;52.190;4.440;2023-04-28T00:12:43;101444.22;;;9.53;100.00
69318;BME280;56457;52.190;4.440;2023-04-28T00:13:43;101442.47;;;9.52;100.00
69318;BME280;56457;52.190;4.440;2023-04-28T00:14:44;101445.13;;;9.58;100.00
69318;BME280;56457;52.190;4.440;2023-04-28T00:15:44;101443.34;;;9.54;100.00
69318;BME280;56457;52.190;4.440;2023-04-28T00:16:44;101439.00;;;9.53;100.00
69318;BME280;56457;52.190;4.440;2023-04-28T00:17:45;101439.84;;;9.52;100.00
69318;BME280;56457;52.190;4.440;2023-04-28T00:18:45;101435.47;;;9.50;100.00
69318;BME280;56457;52.190;4.440;2023-04-28T00:19:46;101442.50;;;9.57;100.00
69318;BME280;56457;52.190;4.440;2023-04-28T00:20:46;101428.50;;;9.56;100.00
69318;BME280;56457;52.190;4.440;2023-04-28T00:21:46;101425.97;;;9.68;100.00
69318;BME280;56457;52.190;4.440;2023-04-28T00:22:47;101437.34;;;9.72;100.00
69318;BME280;56457;52.190;4.440;2023-04-28T00:23:48;101427.75;;;9.69;100.00
69318;BME280;56457;52.190;4.440;2023-04-28T00:24:48;101434.66;;;9.58;100.00
69318;BME280;56457;52.190;4.440;2023-04-28T00:25:52;101422.41;;;9.51;100.00
69318;BME280;56457;52.190;4.440;2023-04-28T00:26:52;101421.53;;;9.54;100.00
69318;BME280;56457;52.190;4.440;2023-04-28T00:27:52;101435.47;;;9.48;100.00
69318;BME280;56457;52.190;4.440;2023-04-28T00:28:53;101428.47;;;9.47;100.00
69318;BME280;56457;52.190;4.440;2023-04-28T00:29:53;101431.09;;;9.50;100.00
69318;BME280;56457;52.190;4.440;2023-04-28T00:30:53;101418.91;;;9.51;100.00
69318;BME280;56457;52.190;4.440;2023-04-28T00:31:53;101424.16;;;9.52;100.00
69318;BME280;56457;52.190;4.440;2023-04-28T00:32:54;101407.56;;;9.55;100.00
69318;BME280;56457;52.190;4.440;2023-04-28T00:33:54;101404.91;;;9.49;100.00
69318;BME280;56457;52.190;4.440;2023-04-28T00:34:55;101403.13;;;9.43;100.00
69318;BME280;56457;52.190;4.440;2023-04-28T00:35:59;101405.78;;;9.44;100.00
69318;BME280;56457;52.190;4.440;2023-04-28T00:37:00;101403.19;;;9.52;100.00
69318;BME280;56457;52.190;4.440;2023-04-28T00:38:00;101397.88;;;9.43;100.00
69318;BME280;56457;52.190;4.440;2023-04-28T00:39:00;101396.13;;;9.42;100.00
69318;BME280;56457;52.190;4.440;2023-04-28T00:40:00;101405.78;;;9.46;100.00
69318;BME280;56457;52.190;4.440;2023-04-28T00:41:01;101398.78;;;9.48;100.00
69318;BME280;56457;52.190;4.440;2023-04-28T00:42:01;101390.88;;;9.36;100.00
69318;BME280;56457;52.190;4.440;2023-04-28T00:43:03;101393.47;;;9.37;100.00
69318;BME280;56457;52.190;4.440;2023-04-28T00:44:03;101386.53;;;9.41;100.00
69318;BME280;56457;52.190;4.440;2023-04-28T00:45:04;101391.81;;;9.44;100.00
69318;BME280;56457;52.190;4.440;2023-04-28T00:46:07;101397.00;;;9.39;100.00
69318;BME280;56457;52.190;4.440;2023-04-28T00:47:07;101394.34;;;9.36;100.00
69318;BME280;56457;52.190;4.440;2023-04-28T00:48:08;101385.66;;;9.40;100.00
69318;BME280;56457;52.190;4.440;2023-04-28T00:49:08;101394.38;;;9.41;100.00
69318;BME280;56457;52.190;4.440;2023-04-28T00:50:09;101389.19;;;9.50;100.00
69318;BME280;56457;52.190;4.440;2023-04-28T00:51:09;101391.84;;;9.53;100.00
69318;BME280;56457;52.190;4.440;2023-04-28T00:52:10;101395.41;;;9.66;100.00
69318;BME280;56457;52.190;4.440;2023-04-28T00:53:10;101393.63;;;9.62;100.00
69318;BME280;56457;52.190;4.440;2023-04-28T00:54:14;101383.94;;;9.50;100.00
69318;BME280;56457;52.190;4.440;2023-04-28T00:55:14;101394.47;;;9.52;100.00
69318;BME280;56457;52.190;4.440;2023-04-28T00:56:15;101382.22;;;9.51;100.00
69318;BME280;56457;52.190;4.440;2023-04-28T00:57:15;101380.50;;;9.53;100.00
69318;BME280;56457;52.190;4.440;2023-04-28T00:58:16;101380.47;;;9.47;100.00
69318;BME280;56457;52.190;4.440;2023-04-28T00:59:16;101376.97;;;9.46;100.00
69318;BME280;56457;52.190;4.440;2023-04-28T01:00:16;101374.31;;;9.41;100.00
69318;BME280;56457;52.190;4.440;2023-04-28T01:01:16;101381.28;;;9.42;100.00
69318;BME280;56457;52.190;4.440;2023-04-28T01:02:18;101376.94;;;9.41;100.00
69318;BME280;56457;52.190;4.440;2023-04-28T01:03:18;101375.19;;;9.40;100.00
69318;BME280;56457;52.190;4.440;2023-04-28T01:04:19;101372.56;;;9.43;100.00
69318;BME280;56457;52.190;4.440;2023-04-28T01:05:19;101369.97;;;9.45;100.00
69318;BME280;56457;52.190;4.440;2023-04-28T01:06:20;101380.50;;;9.51;100.00
69318;BME280;56457;52.190;4.440;2023-04-28T01:07:21;101376.09;;;9.46;100.00
69318;BME280;56457;52.190;4.440;2023-04-28T01:08:22;101379.59;;;9.48;100.00
69318;BME280;56457;52.190;4.440;2023-04-28T01:09:23;101380.53;;;9.57;100.00
69318;BME280;56457;52.190;4.440;2023-04-28T01:10:23;101376.97;;;9.48;100.00
69318;BME280;56457;52.190;4.440;2023-04-28T01:11:23;101374.31;;;9.43;100.00
69318;BME280;56457;52.190;4.440;2023-04-28T01:12:24;101369.97;;;9.45;100.00
69318;BME280;56457;52.190;4.440;2023-04-28T01:13:24;101369.06;;;9.41;100.00
69318;BME280;56457;52.190;4.440;2023-04-28T01:14:24;101362.06;;;9.37;100.00
69318;BME280;56457;52.190;4.440;2023-04-28T01:15:25;101363.84;;;9.40;100.00
69318;BME280;56457;52.190;4.440;2023-04-28T01:16:25;101353.38;;;9.49;100.00
69318;BME280;56457;52.190;4.440;2023-04-28T01:17:27;101358.66;;;9.51;100.00
69318;BME280;56457;52.190;4.440;2023-04-28T01:18:27;101367.38;;;9.48;100.00
69318;BME280;56457;52.190;4.440;2023-04-28T01:19:27;101361.34;;;9.64;100.00
69318;BME280;56457;52.190;4.440;2023-04-28T01:20:28;101365.69;;;9.67;100.00
69318;BME280;56457;52.190;4.440;2023-04-28T01:21:32;101361.28;;;9.52;100.00
69318;BME280;56457;52.190;4.440;2023-04-28T01:22:33;101359.56;;;9.57;100.00
69318;BME280;56457;52.190;4.440;2023-04-28T01:23:33;101358.66;;;9.55;100.00
69318;BME280;56457;52.190;4.440;2023-04-28T01:24:34;101354.28;;;9.53;100.00
69318;BME280;56457;52.190;4.440;2023-04-28T01:25:34;101356.91;;;9.54;100.00
69318;BME280;56457;52.190;4.440;2023-04-28T01:26:34;101350.81;;;9.51;100.00
69318;BME280;56457;52.190;4.440;2023-04-28T01:27:35;101351.63;;;9.39;100.00
69318;BME280;56457;52.190;4.440;2023-04-28T01:28:35;101347.25;;;9.38;100.00
69318;BME280;56457;52.190;4.440;2023-04-28T01:29:35;101339.41;;;9.39;100.00
69318;BME280;56457;52.190;4.440;2023-04-28T01:30:36;101346.34;;;9.37;100.00
69318;BME280;56457;52.190;4.440;2023-04-28T01:31:36;101344.63;;;9.38;100.00
69318;BME280;56457;52.190;4.440;2023-04-28T01:32:36;101345.47;;;9.37;100.00
69318;BME280;56457;52.190;4.440;2023-04-28T01:33:37;101332.41;;;9.38;100.00
69318;BME280;56457;52.190;4.440;2023-04-28T01:34:37;101335.91;;;9.39;100.00
69318;BME280;56457;52.190;4.440;2023-04-28T01:35:37;101329.78;;;9.38;100.00
69318;BME280;56457;52.190;4.440;2023-04-28T01:36:37;101331.53;;;9.42;100.00
69318;BME280;56457;52.190;4.440;2023-04-28T01:37:38;101329.75;;;9.35;100.00
69318;BME280;56457;52.190;4.440;2023-04-28T01:38:38;101332.41;;;9.38;100.00
69318;BME280;56457;52.190;4.440;2023-04-28T01:39:38;101329.78;;;9.40;100.00
69318;BME280;56457;52.190;4.440;2023-04-28T01:40:39;101328.03;;;9.39;100.00
69318;BME280;56457;52.190;4.440;2023-04-28T01:41:39;101329.78;;;9.43;100.00
69318;BME280;56457;52.190;4.440;2023-04-28T01:42:39;101333.34;;;9.51;100.00
69318;BME280;56457;52.190;4.440;2023-04-28T01:43:40;101338.53;;;9.48;100.00
69318;BME280;56457;52.190;4.440;2023-04-28T01:44:40;101332.44;;;9.46;100.00
69318;BME280;56457;52.190;4.440;2023-04-28T01:45:40;101338.56;;;9.47;100.00
69318;BME280;56457;52.190;4.440;2023-04-28T01:46:41;101335.03;;;9.40;100.00
69318;BME280;56457;52.190;4.440;2023-04-28T01:47:41;101327.19;;;9.48;100.00
69318;BME280;56457;52.190;4.440;2023-04-28T01:48:41;101325.44;;;9.50;100.00
69318;BME280;56457;52.190;4.440;2023-04-28T01:49:41;101328.97;;;9.52;100.00
69318;BME280;56457;52.190;4.440;2023-04-28T01:50:42;101320.22;;;9.48;100.00
69318;BME280;56457;52.190;4.440;2023-04-28T01:51:42;101316.75;;;9.51;100.00
69318;BME280;56457;52.190;4.440;2023-04-28T01:52:42;101316.72;;;9.48;100.00
69318;BME280;56457;52.190;4.440;2023-04-28T01:53:43;101310.59;;;9.42;100.00
69318;BME280;56457;52.190;4.440;2023-04-28T01:54:43;101302.72;;;9.38;100.00
69318;BME280;56457;52.190;4.440;2023-04-28T01:55:43;101313.22;;;9.49;100.00
69318;BME280;56457;52.190;4.440;2023-04-28T01:56:43;101309.81;;;9.66;100.00
69318;BME280;56457;52.190;4.440;2023-04-28T01:57:44;101316.84;;;9.75;100.00
69318;BME280;56457;52.190;4.440;2023-04-28T01:58:44;101317.66;;;9.60;100.00
69318;BME280;56457;52.190;4.440;2023-04-28T01:59:44;101314.16;;;9.58;100.00
69318;BME280;56457;52.190;4.440;2023-04-28T02:00:45;101316.78;;;9.58;100.00
69318;BME280;56457;52.190;4.440;2023-04-28T02:01:45;101308.00;;;9.47;100.00
69318;BME280;56457;52.190;4.440;2023-04-28T02:02:45;101308.88;;;9.48;100.00
69318;BME280;56457;52.190;4.440;2023-04-28T02:03:46;101305.41;;;9.56;100.00
69318;BME280;56457;52.190;4.440;2023-04-28T02:04:47;101306.31;;;9.66;100.00
69318;BME280;56457;52.190;4.440;2023-04-28T02:05:48;101308.88;;;9.49;100.00
69318;BME280;56457;52.190;4.440;2023-04-28T02:06:49;101290.53;;;9.44;100.00
69318;BME280;56457;52.190;4.440;2023-04-28T02:07:49;101294.00;;;9.43;100.00
69318;BME280;56457;52.190;4.440;2023-04-28T02:08:49;101294.91;;;9.47;100.00
69318;BME280;56457;52.190;4.440;2023-04-28T02:09:50;101295.78;;;9.46;100.00
69318;BME280;56457;52.190;4.440;2023-04-28T02:10:50;101288.78;;;9.45;100.00
69318;BME280;56457;52.190;4.440;2023-04-28T02:11:50;101285.31;;;9.52;100.00
69318;BME280;56457;52.190;4.440;2023-04-28T02:12:51;101283.63;;;9.65;100.00
69318;BME280;56457;52.190;4.440;2023-04-28T02:13:51;101275.78;;;9.79;100.00
69318;BME280;56457;52.190;4.440;2023-04-28T02:14:51;101277.50;;;9.72;100.00
69318;BME280;56457;52.190;4.440;2023-04-28T02:15:51;101272.25;;;9.58;100.00
69318;BME280;56457;52.190;4.440;2023-04-28T02:16:52;101272.22;;;9.52;100.00
69318;BME280;56457;52.190;4.440;2023-04-28T02:17:52;101266.13;;;9.52;100.00
69318;BME280;56457;52.190;4.440;2023-04-28T02:18:52;101272.25;;;9.60;100.00
69318;BME280;56457;52.190;4.440;2023-04-28T02:19:56;101270.47;;;9.54;100.00
69318;BME280;56457;52.190;4.440;2023-04-28T02:20:56;101278.34;;;9.62;100.00
69318;BME280;56457;52.190;4.440;2023-04-28T02:21:56;101275.72;;;9.60;100.00
69318;BME280;56457;52.190;4.440;2023-04-28T02:22:57;101274.88;;;9.60;100.00
69318;BME280;56457;52.190;4.440;2023-04-28T02:23:57;101276.59;;;9.56;100.00
69318;BME280;56457;52.190;4.440;2023-04-28T02:24:57;101271.34;;;9.52;100.00
69318;BME280;56457;52.190;4.440;2023-04-28T02:26:00;101270.47;;;9.56;100.00
69318;BME280;56457;52.190;4.440;2023-04-28T02:27:03;101259.97;;;9.47;100.00
69318;BME280;56457;52.190;4.440;2023-04-28T02:28:03;101266.09;;;9.49;100.00
69318;BME280;56457;52.190;4.440;2023-04-28T02:29:03;101262.63;;;9.51;100.00
69318;BME280;56457;52.190;4.440;2023-04-28T02:30:04;101261.75;;;9.61;100.00
69318;BME280;56457;52.190;4.440;2023-04-28T02:32:05;101259.13;;;9.61;100.00
69318;BME280;56457;52.190;4.440;2023-04-28T02:33:05;101253.94;;;9.74;100.00
69318;BME280;56457;52.190;4.440;2023-04-28T02:34:05;101258.28;;;9.65;100.00
69318;BME280;56457;52.190;4.440;2023-04-28T02:35:06;101257.44;;;9.76;100.00
69318;BME280;56457;52.190;4.440;2023-04-28T02:36:07;101252.19;;;9.71;100.00
69318;BME280;56457;52.190;4.440;2023-04-28T02:37:07;101247.81;;;9.67;100.00
69318;BME280;56457;52.190;4.440;2023-04-28T02:38:08;101256.53;;;9.61;100.00
69318;BME280;56457;52.190;4.440;2023-04-28T02:39:08;101248.66;;;9.55;100.00
69318;BME280;56457;52.190;4.440;2023-04-28T02:40:09;101246.91;;;9.51;100.00
69318;BME280;56457;52.190;4.440;2023-04-28T02:41:09;101247.78;;;9.55;100.00
69318;BME280;56457;52.190;4.440;2023-04-28T02:42:10;101252.13;;;9.56;100.00
69318;BME280;56457;52.190;4.440;2023-04-28T02:43:10;101257.38;;;9.53;100.00
69318;BME280;56457;52.190;4.440;2023-04-28T02:44:10;101256.50;;;9.55;100.00
69318;BME280;56457;52.190;4.440;2023-04-28T02:45:11;101253.88;;;9.55;100.00
69318;BME280;56457;52.190;4.440;2023-04-28T02:46:11;101254.75;;;9.51;100.00
69318;BME280;56457;52.190;4.440;2023-04-28T02:47:11;101248.63;;;9.46;100.00
69318;BME280;56457;52.190;4.440;2023-04-28T02:48:12;101250.38;;;9.46;100.00
69318;BME280;56457;52.190;4.440;2023-04-28T02:49:12;101247.75;;;9.44;100.00
69318;BME280;56457;52.190;4.440;2023-04-28T02:50:12;101245.97;;;9.43;100.00
69318;BME280;56457;52.190;4.440;2023-04-28T02:51:12;101237.25;;;9.41;100.00
69318;BME280;56457;52.190;4.440;2023-04-28T02:52:13;101241.63;;;9.43;100.00
69318;BME280;56457;52.190;4.440;2023-04-28T02:53:13;101235.50;;;9.37;100.00
69318;BME280;56457;52.190;4.440;2023-04-28T02:54:14;101231.16;;;9.43;100.00
69318;BME280;56457;52.190;4.440;2023-04-28T02:55:14;101233.78;;;9.40;100.00
69318;BME280;56457;52.190;4.440;2023-04-28T02:56:22;101232.88;;;9.37;100.00
69318;BME280;56457;52.190;4.440;2023-04-28T02:57:23;101227.66;;;9.38;100.00
69318;BME280;56457;52.190;4.440;2023-04-28T02:58:23;101235.53;;;9.46;100.00
69318;BME280;56457;52.190;4.440;2023-04-28T02:59:23;101226.81;;;9.56;100.00
69318;BME280;56457;52.190;4.440;2023-04-28T03:00:24;101224.19;;;9.55;100.00
69318;BME280;56457;52.190;4.440;2023-04-28T03:01:24;101228.56;;;9.51;100.00
69318;BME280;56457;52.190;4.440;2023-04-28T03:02:25;101221.59;;;9.53;100.00
69318;BME280;56457;52.190;4.440;2023-04-28T03:03:25;101218.94;;;9.46;100.00
69318;BME280;56457;52.190;4.440;2023-04-28T03:04:25;101218.09;;;9.60;100.00
69318;BME280;56457;52.190;4.440;2023-04-28T03:05:26;101215.47;;;9.51;100.00
69318;BME280;56457;52.190;4.440;2023-04-28T03:06:26;101217.19;;;9.48;100.00
69318;BME280;56457;52.190;4.440;2023-04-28T03:07:27;101209.34;;;9.38;100.00
69318;BME280;56457;52.190;4.440;2023-04-28T03:08:27;101209.31;;;9.37;100.00
69318;BME280;56457;52.190;4.440;2023-04-28T03:09:27;101197.09;;;9.33;100.00
69318;BME280;56457;52.190;4.440;2023-04-28T03:10:28;101207.56;;;9.43;100.00
69318;BME280;56457;52.190;4.440;2023-04-28T03:11:28;101198.84;;;9.40;100.00
69318;BME280;56457;52.190;4.440;2023-04-28T03:12:28;101208.50;;;9.52;100.00
69318;BME280;56457;52.190;4.440;2023-04-28T03:13:29;101201.47;;;9.43;100.00
69318;BME280;56457;52.190;4.440;2023-04-28T03:14:29;101206.72;;;9.40;100.00
69318;BME280;56457;52.190;4.440;2023-04-28T03:15:30;101204.94;;;9.33;100.00
69318;BME280;56457;52.190;4.440;2023-04-28T03:16:30;101189.28;;;9.45;100.00
69318;BME280;56457;52.190;4.440;2023-04-28T03:17:30;101193.59;;;9.32;100.00
69318;BME280;56457;52.190;4.440;2023-04-28T03:18:30;101190.09;;;9.35;100.00
69318;BME280;56457;52.190;4.440;2023-04-28T03:19:31;101184.81;;;9.24;100.00
69318;BME280;56457;52.190;4.440;2023-04-28T03:20:32;101186.59;;;9.27;100.00
69318;BME280;56457;52.190;4.440;2023-04-28T03:21:32;101180.47;;;9.20;100.00
69318;BME280;56457;52.190;4.440;2023-04-28T03:22:33;101188.31;;;9.20;100.00
69318;BME280;56457;52.190;4.440;2023-04-28T03:23:33;101181.34;;;9.21;100.00
69318;BME280;56457;52.190;4.440;2023-04-28T03:24:33;101184.88;;;9.32;100.00
69318;BME280;56457;52.190;4.440;2023-04-28T03:25:34;101183.09;;;9.25;100.00
69318;BME280;56457;52.190;4.440;2023-04-28T03:26:34;101179.59;;;9.20;100.00
69318;BME280;56457;52.190;4.440;2023-04-28T03:27:34;101178.72;;;9.21;100.00
69318;BME280;56457;52.190;4.440;2023-04-28T03:28:34;101184.81;;;9.18;100.00
69318;BME280;56457;52.190;4.440;2023-04-28T03:29:35;101174.34;;;9.18;100.00
69318;BME280;56457;52.190;4.440;2023-04-28T03:30:35;101177.84;;;9.15;100.00
69318;BME280;56457;52.190;4.440;2023-04-28T03:31:35;101183.06;;;9.18;100.00
69318;BME280;56457;52.190;4.440;2023-04-28T03:32:36;101174.34;;;9.16;100.00
69318;BME280;56457;52.190;4.440;2023-04-28T03:33:36;101179.59;;;9.20;100.00
69318;BME280;56457;52.190;4.440;2023-04-28T03:34:36;101166.47;;;9.18;100.00
69318;BME280;56457;52.190;4.440;2023-04-28T03:35:37;101173.47;;;9.16;100.00
69318;BME280;56457;52.190;4.440;2023-04-28T03:36:37;101169.13;;;9.24;100.00
69318;BME280;56457;52.190;4.440;2023-04-28T03:37:37;101168.22;;;9.10;100.00
69318;BME280;56457;52.190;4.440;2023-04-28T03:38:38;101168.19;;;9.04;100.00
69318;BME280;56457;52.190;4.440;2023-04-28T03:39:38;101164.69;;;9.06;100.00
69318;BME280;56457;52.190;4.440;2023-04-28T03:40:38;101166.47;;;9.07;100.00
69318;BME280;56457;52.190;4.440;2023-04-28T03:41:38;101164.69;;;9.06;100.00
69318;BME280;56457;52.190;4.440;2023-04-28T03:42:39;101160.34;;;9.02;100.00
69318;BME280;56457;52.190;4.440;2023-04-28T03:43:39;101165.56;;;9.02;100.00
69318;BME280;56457;52.190;4.440;2023-04-28T03:44:39;101162.97;;;9.07;100.00
69318;BME280;56457;52.190;4.440;2023-04-28T03:45:40;101157.72;;;9.02;100.00
69318;BME280;56457;52.190;4.440;2023-04-28T03:46:40;101156.84;;;9.06;100.00
69318;BME280;56457;52.190;4.440;2023-04-28T03:47:41;101165.59;;;9.08;100.00
69318;BME280;56457;52.190;4.440;2023-04-28T03:48:41;101166.47;;;9.07;100.00
69318;BME280;56457;52.190;4.440;2023-04-28T03:49:41;101162.97;;;9.02;100.00
69318;BME280;56457;52.190;4.440;2023-04-28T03:50:41;101168.22;;;9.08;100.00
69318;BME280;56457;52.190;4.440;2023-04-28T03:51:44;101166.47;;;9.09;100.00
69318;BME280;56457;52.190;4.440;2023-04-28T03:52:44;101172.53;;;9.00;100.00
69318;BME280;56457;52.190;4.440;2023-04-28T03:53:44;101165.56;;;9.02;100.00
69318;BME280;56457;52.190;4.440;2023-04-28T03:54:45;101162.97;;;9.04;100.00
69318;BME280;56457;52.190;4.440;2023-04-28T03:55:45;101166.44;;;9.06;100.00
69318;BME280;56457;52.190;4.440;2023-04-28T03:56:45;101162.94;;;9.05;100.00
69318;BME280;56457;52.190;4.440;2023-04-28T03:57:46;101161.22;;;9.09;100.00
69318;BME280;56457;52.190;4.440;2023-04-28T03:58:46;101167.31;;;9.05;100.00
69318;BME280;56457;52.190;4.440;2023-04-28T03:59:46;101169.09;;;9.07;100.00
69318;BME280;56457;52.190;4.440;2023-04-28T04:00:47;101166.44;;;9.06;100.00
69318;BME280;56457;52.190;4.440;2023-04-28T04:01:47;101170.81;;;9.10;100.00
69318;BME280;56457;52.190;4.440;2023-04-28T04:02:47;101176.09;;;9.16;100.00
69318;BME280;56457;52.190;4.440;2023-04-28T04:03:47;101170.03;;;9.26;100.00
69318;BME280;56457;52.190;4.440;2023-04-28T04:04:48;101163.06;;;9.33;100.00
69318;BME280;56457;52.190;4.440;2023-04-28T04:05:48;101164.81;;;9.38;100.00
69318;BME280;56457;52.190;4.440;2023-04-28T04:06:48;101157.78;;;9.31;100.00
69318;BME280;56457;52.190;4.440;2023-04-28T04:07:49;101155.19;;;9.30;100.00
69318;BME280;56457;52.190;4.440;2023-04-28T04:08:49;101155.16;;;9.31;100.00
69318;BME280;56457;52.190;4.440;2023-04-28T04:09:49;101154.34;;;9.44;100.00
69318;BME280;56457;52.190;4.440;2023-04-28T04:10:50;101154.31;;;9.43;100.00
69318;BME280;56457;52.190;4.440;2023-04-28T04:11:51;101153.47;;;9.44;100.00
69318;BME280;56457;52.190;4.440;2023-04-28T04:12:51;101151.72;;;9.46;100.00
69318;BME280;56457;52.190;4.440;2023-04-28T04:13:52;101152.56;;;9.33;100.00
69318;BME280;56457;52.190;4.440;2023-04-28T04:14:52;101156.94;;;9.28;100.00
69318;BME280;56457;52.190;4.440;2023-04-28T04:15:52;101161.28;;;9.20;100.00
69318;BME280;56457;52.190;4.440;2023-04-28T04:16:53;101168.25;;;9.25;100.00
69318;BME280;56457;52.190;4.440;2023-04-28T04:17:54;101175.22;;;9.23;100.00
69318;BME280;56457;52.190;4.440;2023-04-28T04:18:54;101170.06;;;9.38;100.00
69318;BME280;56457;52.190;4.440;2023-04-28T04:19:55;101166.53;;;9.33;100.00
69318;BME280;56457;52.190;4.440;2023-04-28T04:20:55;101168.28;;;9.37;100.00
69318;BME280;56457;52.190;4.440;2023-04-28T04:21:56;101162.19;;;9.38;100.00
69318;BME280;56457;52.190;4.440;2023-04-28T04:22:56;101164.81;;;9.40;100.00
69318;BME280;56457;52.190;4.440;2023-04-28T04:23:57;101174.44;;;9.44;100.00
69318;BME280;56457;52.190;4.440;2023-04-28T04:24:57;101170.03;;;9.34;100.00
69318;BME280;56457;52.190;4.440;2023-04-28T04:25:57;101175.25;;;9.37;100.00
69318;BME280;56457;52.190;4.440;2023-04-28T04:26:57;101172.66;;;9.35;100.00
69318;BME280;56457;52.190;4.440;2023-04-28T04:27:58;101176.13;;;9.37;100.00
69318;BME280;56457;52.190;4.440;2023-04-28T04:28:58;101179.66;;;9.41;100.00
69318;BME280;56457;52.190;4.440;2023-04-28T04:29:58;101179.66;;;9.46;100.00
69318;BME280;56457;52.190;4.440;2023-04-28T04:30:59;101177.91;;;9.46;100.00
69318;BME280;56457;52.190;4.440;2023-04-28T04:31:59;101177.03;;;9.46;100.00
69318;BME280;56457;52.190;4.440;2023-04-28T04:32:59;101177.91;;;9.48;100.00
69318;BME280;56457;52.190;4.440;2023-04-28T04:34:00;101172.69;;;9.46;100.00
69318;BME280;56457;52.190;4.440;2023-04-28T04:35:00;101170.06;;;9.52;100.00
69318;BME280;56457;52.190;4.440;2023-04-28T04:36:00;101173.56;;;9.60;100.00
69318;BME280;56457;52.190;4.440;2023-04-28T04:37:01;101177.94;;;9.66;100.00
69318;BME280;56457;52.190;4.440;2023-04-28T04:38:01;101177.06;;;9.75;100.00
69318;BME280;56457;52.190;4.440;2023-04-28T04:39:02;101171.84;;;9.71;100.00
69318;BME280;56457;52.190;4.440;2023-04-28T04:40:02;101177.94;;;9.67;100.00
69318;BME280;56457;52.190;4.440;2023-04-28T04:41:03;101177.06;;;9.58;100.00
69318;BME280;56457;52.190;4.440;2023-04-28T04:42:04;101167.47;;;9.64;100.00
69318;BME280;56457;52.190;4.440;2023-04-28T04:43:04;101162.22;;;9.58;100.00
69318;BME280;56457;52.190;4.440;2023-04-28T04:44:04;101164.81;;;9.49;100.00
69318;BME280;56457;52.190;4.440;2023-04-28T04:45:05;101153.47;;;9.41;100.00
69318;BME280;56457;52.190;4.440;2023-04-28T04:46:06;101152.56;;;9.27;100.00
69318;BME280;56457;52.190;4.440;2023-04-28T04:47:06;101143.81;;;9.15;100.00
69318;BME280;56457;52.190;4.440;2023-04-28T04:48:06;101131.59;;;9.13;100.00
69318;BME280;56457;52.190;4.440;2023-04-28T04:49:07;101135.94;;;9.12;100.00
69318;BME280;56457;52.190;4.440;2023-04-28T04:50:07;101131.56;;;9.04;100.00
69318;BME280;56457;52.190;4.440;2023-04-28T04:51:08;101127.16;;;8.98;100.00
69318;BME280;56457;52.190;4.440;2023-04-28T04:52:08;101120.16;;;8.93;100.00
69318;BME280;56457;52.190;4.440;2023-04-28T04:53:08;101119.28;;;8.92;100.00
69318;BME280;56457;52.190;4.440;2023-04-28T04:54:08;101111.44;;;8.90;100.00
69318;BME280;56457;52.190;4.440;2023-04-28T04:55:09;101112.28;;;8.85;100.00
69318;BME280;56457;52.190;4.440;2023-04-28T04:56:10;101104.41;;;8.82;100.00
69318;BME280;56457;52.190;4.440;2023-04-28T04:57:10;101100.91;;;8.71;100.00
69318;BME280;56457;52.190;4.440;2023-04-28T04:58:11;101086.94;;;8.66;100.00
69318;BME280;56457;52.190;4.440;2023-04-28T04:59:11;101086.88;;;8.53;100.00
69318;BME280;56457;52.190;4.440;2023-04-28T05:00:12;101074.63;;;8.40;100.00
69318;BME280;56457;52.190;4.440;2023-04-28T05:01:12;101068.44;;;8.30;100.00
69318;BME280;56457;52.190;4.440;2023-04-28T05:02:13;101074.50;;;8.20;100.00
69318;BME280;56457;52.190;4.440;2023-04-28T05:03:13;101078.78;;;8.12;100.00
69318;BME280;56457;52.190;4.440;2023-04-28T05:04:13;101071.72;;;7.96;100.00
69318;BME280;56457;52.190;4.440;2023-04-28T05:05:13;101076.88;;;7.88;100.00
69318;BME280;56457;52.190;4.440;2023-04-28T05:06:14;101071.69;;;7.90;100.00
69318;BME280;56457;52.190;4.440;2023-04-28T05:07:14;101079.44;;;7.79;100.00
69318;BME280;56457;52.190;4.440;2023-04-28T05:08:14;101077.72;;;7.81;100.00
69318;BME280;56457;52.190;4.440;2023-04-28T05:09:14;101074.19;;;7.76;100.00
69318;BME280;56457;52.190;4.440;2023-04-28T05:10:15;101078.53;;;7.72;100.00
69318;BME280;56457;52.190;4.440;2023-04-28T05:11:15;101079.41;;;7.76;100.00
69318;BME280;56457;52.190;4.440;2023-04-28T05:12:16;101078.53;;;7.74;100.00
69318;BME280;56457;52.190;4.440;2023-04-28T05:13:16;101078.56;;;7.78;100.00
69318;BME280;56457;52.190;4.440;2023-04-28T05:14:16;101080.34;;;7.82;100.00
69318;BME280;56457;52.190;4.440;2023-04-28T05:15:16;101078.56;;;7.78;100.00
69318;BME280;56457;52.190;4.440;2023-04-28T05:16:17;101087.28;;;7.77;100.00
69318;BME280;56457;52.190;4.440;2023-04-28T05:17:17;101081.22;;;7.83;100.00